Terminal Aerodrome Forecast
Issued by NWS

Current Version | Previous Version | Text Only | Print | Product List | Glossary Off
Versions: 1 2 3 4 5 6 7 8 9 10 11 12 13 14 15 16 17 18 19 20 21 22 23 24 25 26 27 28 29

739
FTUS41 KPBZ 282321
TAFMGW
TAF
KMGW 282321Z 2900/2924 00000KT P6SM -SHRA BKN040
     FM290300 00000KT 2SM BR BKN006
      TEMPO 2907/2911 1SM BR
     FM291400 29004KT P6SM BKN010
     FM291600 29004KT P6SM BKN020
     FM291800 30005KT P6SM VCSH BKN035=

USA.gov is the U.S. government's official web portal to all federal, state and local government web resources and services.